createdAt,value
2017-12-08T00:00:02.147Z,0
2017-12-08T00:01:02.396Z,0
2017-12-08T00:02:02.123Z,0
2017-12-08T00:03:02.088Z,0
2017-12-08T00:04:02.082Z,0
2017-12-08T00:05:02.127Z,0
2017-12-08T00:06:02.319Z,0
2017-12-08T00:07:02.296Z,0
2017-12-08T00:08:02.285Z,0
2017-12-08T00:09:02.033Z,0
2017-12-08T00:10:02.003Z,0
2017-12-08T00:11:01.984Z,0
2017-12-08T00:12:02.007Z,0
2017-12-08T00:13:02.237Z,0
2017-12-08T00:14:02.215Z,0
2017-12-08T00:15:01.705Z,0
2017-12-08T00:16:02.196Z,0
2017-12-08T00:17:02.195Z,0
2017-12-08T00:18:02.185Z,0
2017-12-08T00:19:01.895Z,0
2017-12-08T00:20:02.160Z,0
2017-12-08T00:21:02.135Z,0
2017-12-08T00:22:01.883Z,0
2017-12-08T00:23:02.096Z,0
2017-12-08T00:24:02.082Z,0
2017-12-08T00:25:01.849Z,0
2017-12-08T00:26:01.838Z,0
2017-12-08T00:27:01.559Z,0
2017-12-08T00:28:01.804Z,0
2017-12-08T00:29:01.783Z,0
2017-12-08T00:30:01.773Z,0
2017-12-08T00:31:02.192Z,0
2017-12-08T00:32:02.007Z,0
2017-12-08T00:33:02.008Z,0
2017-12-08T00:34:01.755Z,0
2017-12-08T00:35:01.996Z,0
2017-12-08T00:36:01.726Z,0
2017-12-08T00:37:01.957Z,0
2017-12-08T00:38:01.672Z,0
2017-12-08T00:39:01.933Z,0
2017-12-08T00:40:01.935Z,0
2017-12-08T00:41:01.400Z,0
2017-12-08T00:42:01.888Z,0
2017-12-08T00:43:01.886Z,0
2017-12-08T00:44:01.884Z,0
2017-12-08T00:45:01.879Z,0
2017-12-08T00:46:01.874Z,0
2017-12-08T00:47:01.890Z,0
2017-12-08T00:48:01.832Z,0
2017-12-08T00:49:01.567Z,0
2017-12-08T00:50:01.532Z,0
2017-12-08T00:51:01.551Z,0
2017-12-08T00:52:01.794Z,0
2017-12-08T00:53:01.763Z,0
2017-12-08T00:54:01.766Z,0
2017-12-08T00:55:01.525Z,0
2017-12-08T00:56:01.742Z,0
2017-12-08T00:57:01.721Z,0
2017-12-08T00:58:01.467Z,0
2017-12-08T00:59:01.442Z,0
2017-12-08T01:00:01.662Z,0
2017-12-08T01:01:01.396Z,0
2017-12-08T01:02:01.423Z,0
2017-12-08T01:03:01.666Z,0
2017-12-08T01:04:01.658Z,0
2017-12-08T01:05:01.367Z,0
2017-12-08T01:06:01.606Z,0
2017-12-08T01:07:01.081Z,0
2017-12-08T01:08:01.336Z,0
2017-12-08T01:09:01.314Z,0
2017-12-08T01:10:01.299Z,0
2017-12-08T01:11:01.328Z,0
2017-12-08T01:12:01.294Z,0
2017-12-08T01:13:01.289Z,0
2017-12-08T01:14:01.523Z,0
2017-12-08T01:15:01.263Z,0
2017-12-08T01:16:01.510Z,0
2017-12-08T01:17:01.488Z,0
2017-12-08T01:18:01.250Z,0
2017-12-08T01:19:01.185Z,0
2017-12-08T01:20:01.491Z,0
2017-12-08T01:21:00.920Z,0
2017-12-08T01:22:01.441Z,0
2017-12-08T01:23:01.412Z,0
2017-12-08T01:24:01.140Z,0
2017-12-08T01:25:01.381Z,0
2017-12-08T01:26:01.136Z,0
2017-12-08T01:27:01.350Z,0
2017-12-08T01:28:01.349Z,0
2017-12-08T01:29:01.335Z,0
2017-12-08T01:30:01.319Z,0
2017-12-08T01:31:01.071Z,0
2017-12-08T01:32:01.313Z,0
2017-12-08T01:33:01.040Z,0
2017-12-08T01:34:01.314Z,0
2017-12-08T01:35:01.266Z,0
2017-12-08T01:36:01.262Z,0
2017-12-08T01:37:01.270Z,0
2017-12-08T01:38:01.218Z,0
2017-12-08T01:39:01.220Z,0
2017-12-08T01:40:01.220Z,0
2017-12-08T01:41:01.206Z,0
2017-12-08T01:42:01.199Z,0
2017-12-08T01:43:01.197Z,0
2017-12-08T01:44:01.176Z,0
2017-12-08T01:45:01.174Z,0
2017-12-08T01:46:01.160Z,0
2017-12-08T01:47:01.120Z,0
2017-12-08T01:48:01.138Z,0
2017-12-08T01:49:01.113Z,0
2017-12-08T01:50:01.090Z,0
2017-12-08T01:51:00.817Z,0
2017-12-08T01:52:01.062Z,0
2017-12-08T01:53:01.068Z,0
2017-12-08T01:54:01.064Z,0
2017-12-08T01:55:01.054Z,0
2017-12-08T01:56:01.026Z,0
2017-12-08T01:57:00.520Z,0
2017-12-08T01:58:01.015Z,0
2017-12-08T01:59:00.726Z,0
2017-12-08T02:00:00.982Z,0
2017-12-08T02:01:00.961Z,0
2017-12-08T02:02:00.703Z,0
2017-12-08T02:03:00.707Z,0
2017-12-08T02:04:00.940Z,0
2017-12-08T02:05:00.935Z,0
2017-12-08T02:06:00.918Z,0
2017-12-08T02:07:00.896Z,0
2017-12-08T02:08:00.643Z,0
2017-12-08T02:09:00.886Z,0
2017-12-08T02:10:00.615Z,0
2017-12-08T02:11:00.625Z,0
2017-12-08T02:12:00.882Z,0
2017-12-08T02:13:00.896Z,0
2017-12-08T02:14:00.298Z,0
2017-12-08T02:15:00.836Z,0
2017-12-08T02:16:00.812Z,0
2017-12-08T02:17:00.805Z,0
2017-12-08T02:18:00.819Z,0
2017-12-08T02:19:00.782Z,0
2017-12-08T02:20:00.748Z,0
2017-12-08T02:21:00.486Z,0
2017-12-08T02:22:00.482Z,0
2017-12-08T02:23:00.707Z,0
2017-12-08T02:24:00.722Z,0
2017-12-08T02:25:00.670Z,0
2017-12-08T02:26:00.420Z,0
2017-12-08T02:27:00.670Z,0
2017-12-08T02:28:00.661Z,0
2017-12-08T02:29:00.668Z,0
2017-12-08T02:30:00.639Z,0
2017-12-08T02:31:00.371Z,0
2017-12-08T02:32:00.594Z,0
2017-12-08T02:33:00.644Z,0
2017-12-08T02:34:00.596Z,0
2017-12-08T02:35:00.066Z,0
2017-12-08T02:36:00.578Z,0
2017-12-08T02:37:00.297Z,0
2017-12-08T02:38:00.538Z,0
2017-12-08T02:39:00.520Z,0
2017-12-08T02:40:00.514Z,0
2017-12-08T02:41:00.518Z,0
2017-12-08T02:42:00.496Z,0
2017-12-08T02:43:00.497Z,0
2017-12-08T02:44:00.478Z,0
2017-12-08T02:45:00.487Z,0
2017-12-08T02:46:00.184Z,0
2017-12-08T02:47:00.448Z,0
2017-12-08T02:48:00.426Z,0
2017-12-08T02:49:00.422Z,0
2017-12-08T02:50:00.423Z,0
2017-12-08T02:51:00.416Z,0
2017-12-08T02:52:00.156Z,0
2017-12-08T02:53:00.376Z,0
2017-12-08T02:54:00.391Z,0
2017-12-08T02:55:00.346Z,0
2017-12-08T02:56:00.344Z,0
2017-12-08T02:57:00.326Z,0
2017-12-08T02:58:00.306Z,0
2017-12-08T02:59:00.358Z,0
2017-12-08T03:00:00.284Z,0
2017-12-08T03:01:00.270Z,0
2017-12-08T03:02:00.261Z,0
2017-12-08T03:02:59.987Z,0
2017-12-08T03:04:00.245Z,0
2017-12-08T03:05:00.234Z,0
2017-12-08T03:06:00.213Z,0
2017-12-08T03:06:59.944Z,0
2017-12-08T03:08:00.195Z,0
2017-12-08T03:08:59.922Z,0
2017-12-08T03:10:00.186Z,0
2017-12-08T03:10:59.917Z,0
2017-12-08T03:12:00.152Z,0
2017-12-08T03:13:00.145Z,0
2017-12-08T03:13:59.871Z,0
2017-12-08T03:15:00.108Z,0
2017-12-08T03:16:00.107Z,0
2017-12-08T03:17:00.085Z,0
2017-12-08T03:18:00.089Z,0
2017-12-08T03:19:00.078Z,0
2017-12-08T03:20:00.050Z,0
2017-12-08T03:21:00.048Z,0
2017-12-08T03:22:00.031Z,0
2017-12-08T03:22:59.764Z,0
2017-12-08T03:24:00.086Z,0
2017-12-08T03:24:59.753Z,0
2017-12-08T03:26:00.005Z,0
2017-12-08T03:26:59.984Z,0
2017-12-08T03:27:59.982Z,0
2017-12-08T03:28:59.959Z,0
2017-12-08T03:29:59.947Z,0
2017-12-08T03:30:59.947Z,0
2017-12-08T03:31:59.668Z,0
2017-12-08T03:32:59.902Z,0
2017-12-08T03:33:59.639Z,0
2017-12-08T03:34:59.896Z,0
2017-12-08T03:35:59.888Z,0
2017-12-08T03:36:59.611Z,0
2017-12-08T03:37:59.864Z,0
2017-12-08T03:38:59.840Z,0
2017-12-08T03:39:59.589Z,0
2017-12-08T03:40:59.815Z,0
2017-12-08T03:41:59.811Z,0
2017-12-08T03:42:59.904Z,0
2017-12-08T03:43:59.282Z,0
2017-12-08T03:45:00.191Z,0
2017-12-08T03:45:59.515Z,0
2017-12-08T03:46:59.742Z,0
2017-12-08T03:47:59.743Z,0
2017-12-08T03:48:59.480Z,0
2017-12-08T03:49:59.217Z,0
2017-12-08T03:50:59.710Z,0
2017-12-08T03:51:59.707Z,0
2017-12-08T03:52:59.168Z,0
2017-12-08T03:53:59.732Z,0
2017-12-08T03:54:59.161Z,0
2017-12-08T03:55:59.444Z,0
2017-12-08T03:56:59.659Z,0
2017-12-08T03:57:59.381Z,0
2017-12-08T03:58:59.616Z,0
2017-12-08T03:59:59.598Z,0
2017-12-08T04:00:59.598Z,0
2017-12-08T04:01:59.353Z,0
2017-12-08T04:02:59.574Z,0
2017-12-08T04:03:59.565Z,0
2017-12-08T04:04:59.549Z,0
2017-12-08T04:05:59.549Z,0
2017-12-08T04:06:59.296Z,0
2017-12-08T04:07:59.269Z,0
2017-12-08T04:08:59.499Z,0
2017-12-08T04:09:59.238Z,0
2017-12-08T04:10:59.221Z,0
2017-12-08T04:11:59.217Z,0
2017-12-08T04:12:59.464Z,0
2017-12-08T04:13:59.441Z,0
2017-12-08T04:14:59.455Z,0
2017-12-08T04:15:59.176Z,0
2017-12-08T04:16:59.160Z,0
2017-12-08T04:17:59.418Z,0
2017-12-08T04:18:59.136Z,0
2017-12-08T04:19:59.131Z,0
2017-12-08T04:20:59.416Z,0
2017-12-08T04:21:59.342Z,0
2017-12-08T04:22:59.352Z,0
2017-12-08T04:23:59.081Z,0
2017-12-08T04:24:59.318Z,0
2017-12-08T04:25:59.312Z,0
2017-12-08T04:26:59.049Z,0
2017-12-08T04:27:59.040Z,0
2017-12-08T04:28:59.019Z,0
2017-12-08T04:29:59.316Z,0
2017-12-08T04:30:59.289Z,0
2017-12-08T04:31:59.023Z,0
2017-12-08T04:32:58.970Z,0
2017-12-08T04:33:58.973Z,0
2017-12-08T04:34:59.223Z,0
2017-12-08T04:35:59.255Z,0
2017-12-08T04:36:59.219Z,0
2017-12-08T04:37:59.162Z,0
2017-12-08T04:38:59.151Z,0
2017-12-08T04:39:59.134Z,0
2017-12-08T04:40:59.130Z,0
2017-12-08T04:41:59.130Z,0
2017-12-08T04:42:59.108Z,0
2017-12-08T04:43:59.090Z,0
2017-12-08T04:44:59.082Z,0
2017-12-08T04:45:59.062Z,0
2017-12-08T04:46:59.072Z,0
2017-12-08T04:47:59.040Z,0
2017-12-08T04:48:59.049Z,0
2017-12-08T04:49:58.778Z,0
2017-12-08T04:50:59.081Z,0
2017-12-08T04:51:58.728Z,0
2017-12-08T04:52:58.791Z,0
2017-12-08T04:53:58.732Z,0
2017-12-08T04:54:58.711Z,0
2017-12-08T04:55:59.021Z,0
2017-12-08T04:56:58.687Z,0
2017-12-08T04:57:58.945Z,0
2017-12-08T04:58:58.899Z,0
2017-12-08T04:59:58.911Z,0
2017-12-08T05:00:58.700Z,0
2017-12-08T05:01:58.891Z,0
2017-12-08T05:02:58.861Z,0
2017-12-08T05:03:58.860Z,0
2017-12-08T05:04:58.849Z,0
2017-12-08T05:05:58.844Z,0
2017-12-08T05:06:58.809Z,0
2017-12-08T05:07:58.816Z,0
2017-12-08T05:08:58.799Z,0
2017-12-08T05:09:58.771Z,0
2017-12-08T05:10:58.760Z,0
2017-12-08T05:11:58.761Z,0
2017-12-08T05:12:58.731Z,0
2017-12-08T05:13:58.723Z,0
2017-12-08T05:14:58.732Z,0
2017-12-08T05:15:58.460Z,0
2017-12-08T05:16:58.710Z,0
2017-12-08T05:17:58.689Z,0
2017-12-08T05:18:58.420Z,0
2017-12-08T05:19:58.660Z,0
2017-12-08T05:20:58.634Z,0
2017-12-08T05:21:58.615Z,0
2017-12-08T05:22:58.362Z,0
2017-12-08T05:23:58.606Z,0
2017-12-08T05:24:58.609Z,0
2017-12-08T05:25:58.573Z,0
2017-12-08T05:26:58.560Z,0
2017-12-08T05:27:58.595Z,0
2017-12-08T05:28:58.288Z,0
2017-12-08T05:29:58.540Z,0
2017-12-08T05:30:58.010Z,0
2017-12-08T05:31:57.998Z,0
2017-12-08T05:32:58.519Z,0
2017-12-08T05:33:58.492Z,0
2017-12-08T05:34:58.467Z,0
2017-12-08T05:35:58.253Z,0
2017-12-08T05:36:58.195Z,0
2017-12-08T05:37:58.461Z,0
2017-12-08T05:38:58.421Z,0
2017-12-08T05:39:58.159Z,0
2017-12-08T05:40:58.148Z,0
2017-12-08T05:41:58.370Z,0
2017-12-08T05:42:58.358Z,0
2017-12-08T05:43:58.122Z,0
2017-12-08T05:44:58.330Z,0
2017-12-08T05:45:58.322Z,0
2017-12-08T05:46:58.323Z,0
2017-12-08T05:47:58.306Z,0
2017-12-08T05:48:58.297Z,0
2017-12-08T05:49:58.292Z,0
2017-12-08T05:50:58.025Z,0
2017-12-08T05:51:58.251Z,0
2017-12-08T05:52:57.996Z,0
2017-12-08T05:53:57.976Z,0
2017-12-08T05:54:58.239Z,0
2017-12-08T05:55:58.343Z,0
2017-12-08T05:56:57.946Z,0
2017-12-08T05:57:58.202Z,0
2017-12-08T05:58:58.204Z,0
2017-12-08T05:59:57.652Z,0
2017-12-08T06:00:57.887Z,0
2017-12-08T06:01:58.135Z,0
2017-12-08T06:02:58.122Z,0
2017-12-08T06:03:58.114Z,0
2017-12-08T06:04:58.106Z,0
2017-12-08T06:05:58.103Z,0
2017-12-08T06:06:58.088Z,0
2017-12-08T06:07:57.856Z,0
2017-12-08T06:08:57.809Z,0
2017-12-08T06:09:57.801Z,0
2017-12-08T06:10:58.082Z,0
2017-12-08T06:11:58.027Z,0
2017-12-08T06:12:58.019Z,0
2017-12-08T06:13:57.989Z,0
2017-12-08T06:14:57.745Z,0
2017-12-08T06:15:57.973Z,0
2017-12-08T06:16:57.988Z,0
2017-12-08T06:17:57.945Z,0
2017-12-08T06:18:57.917Z,0
2017-12-08T06:19:57.947Z,0
2017-12-08T06:20:57.682Z,0
2017-12-08T06:21:57.686Z,0
2017-12-08T06:22:57.684Z,0
2017-12-08T06:23:57.374Z,0
2017-12-08T06:24:57.895Z,0
2017-12-08T06:25:57.604Z,0
2017-12-08T06:26:57.849Z,0
2017-12-08T06:27:57.585Z,0
2017-12-08T06:28:57.813Z,0
2017-12-08T06:29:57.812Z,0
2017-12-08T06:30:57.865Z,0
2017-12-08T06:31:57.796Z,0
2017-12-08T06:32:57.527Z,0
2017-12-08T06:33:57.792Z,0
2017-12-08T06:34:57.778Z,0
2017-12-08T06:35:57.498Z,0
2017-12-08T06:36:57.731Z,0
2017-12-08T06:37:57.735Z,0
2017-12-08T06:38:57.721Z,0
2017-12-08T06:39:57.434Z,0
2017-12-08T06:40:57.705Z,0
2017-12-08T06:41:57.426Z,0
2017-12-08T06:42:57.703Z,0
2017-12-08T06:43:57.653Z,0
2017-12-08T06:44:57.650Z,0
2017-12-08T06:45:57.681Z,0
2017-12-08T06:46:57.642Z,0
2017-12-08T06:47:57.363Z,0
2017-12-08T06:48:57.617Z,0
2017-12-08T06:49:57.581Z,0
2017-12-08T06:50:57.300Z,0
2017-12-08T06:51:57.559Z,0
2017-12-08T06:52:57.566Z,5
2017-12-08T06:53:57.283Z,5
2017-12-08T06:54:57.282Z,5
2017-12-08T06:55:57.258Z,5
2017-12-08T06:56:57.496Z,5
2017-12-08T06:57:57.496Z,5
2017-12-08T06:58:57.226Z,5
2017-12-08T06:59:57.478Z,5
2017-12-08T07:00:57.198Z,10
2017-12-08T07:01:57.188Z,10
2017-12-08T07:02:57.429Z,10
2017-12-08T07:03:57.433Z,10
2017-12-08T07:04:57.413Z,10
2017-12-08T07:05:57.410Z,10
2017-12-08T07:06:57.371Z,15
2017-12-08T07:07:57.368Z,15
2017-12-08T07:08:57.138Z,15
2017-12-08T07:09:57.345Z,15
2017-12-08T07:10:57.364Z,15
2017-12-08T07:11:57.094Z,20
2017-12-08T07:12:57.317Z,20
2017-12-08T07:13:57.286Z,20
2017-12-08T07:14:57.041Z,20
2017-12-08T07:15:57.290Z,25
2017-12-08T07:16:57.267Z,25
2017-12-08T07:17:57.075Z,25
2017-12-08T07:18:57.236Z,25
2017-12-08T07:19:57.249Z,30
2017-12-08T07:20:57.213Z,30
2017-12-08T07:21:57.248Z,30
2017-12-08T07:22:57.204Z,30
2017-12-08T07:23:57.182Z,35
2017-12-08T07:24:57.172Z,35
2017-12-08T07:25:57.156Z,35
2017-12-08T07:26:57.129Z,35
2017-12-08T07:27:56.888Z,40
2017-12-08T07:28:57.123Z,40
2017-12-08T07:29:57.123Z,40
2017-12-08T07:30:57.124Z,40
2017-12-08T07:31:57.145Z,45
2017-12-08T07:32:56.819Z,45
2017-12-08T07:33:57.121Z,45
2017-12-08T07:34:57.049Z,50
2017-12-08T07:35:57.044Z,50
2017-12-08T07:36:56.757Z,50
2017-12-08T07:37:56.742Z,50
2017-12-08T07:38:57.029Z,55
2017-12-08T07:39:56.962Z,55
2017-12-08T07:40:56.986Z,60
2017-12-08T07:41:57.034Z,60
2017-12-08T07:42:56.964Z,60
2017-12-08T07:43:56.944Z,60
2017-12-08T07:44:56.922Z,65
2017-12-08T07:45:56.901Z,65
2017-12-08T07:46:56.892Z,65
2017-12-08T07:47:56.370Z,65
2017-12-08T07:48:56.870Z,65
2017-12-08T07:49:56.601Z,65
2017-12-08T07:50:56.834Z,65
2017-12-08T07:51:56.823Z,65
2017-12-08T07:52:56.800Z,70
2017-12-08T07:53:56.801Z,70
2017-12-08T07:54:56.792Z,70
2017-12-08T07:55:56.770Z,70
2017-12-08T07:56:56.738Z,75
2017-12-08T07:57:56.761Z,75
2017-12-08T07:58:56.889Z,80
2017-12-08T07:59:56.461Z,80
2017-12-08T08:00:56.706Z,80
2017-12-08T08:01:56.701Z,85
2017-12-08T08:02:56.426Z,85
2017-12-08T08:03:56.671Z,90
2017-12-08T08:04:56.677Z,90
2017-12-08T08:05:56.658Z,90
2017-12-08T08:06:56.654Z,90
2017-12-08T08:07:56.149Z,90
2017-12-08T08:08:56.354Z,95
2017-12-08T08:09:56.612Z,95
2017-12-08T08:10:56.309Z,95
2017-12-08T08:11:56.579Z,95
2017-12-08T08:12:56.301Z,95
2017-12-08T08:13:56.284Z,95
2017-12-08T08:14:56.507Z,100
2017-12-08T08:15:56.512Z,100
2017-12-08T08:16:56.495Z,100
2017-12-08T08:17:56.246Z,100
2017-12-08T08:18:56.508Z,105
2017-12-08T08:19:56.224Z,105
2017-12-08T08:20:56.193Z,105
2017-12-08T08:21:56.453Z,105
2017-12-08T08:22:56.203Z,105
2017-12-08T08:23:56.419Z,105
2017-12-08T08:24:56.401Z,105
2017-12-08T08:25:56.426Z,105
2017-12-08T08:26:56.364Z,105
2017-12-08T08:27:56.356Z,105
2017-12-08T08:28:56.176Z,110
2017-12-08T08:29:56.338Z,110
2017-12-08T08:30:56.056Z,110
2017-12-08T08:31:56.055Z,110
2017-12-08T08:32:55.793Z,110
2017-12-08T08:33:56.283Z,110
2017-12-08T08:34:56.279Z,110
2017-12-08T08:35:56.290Z,110
2017-12-08T08:36:55.994Z,110
2017-12-08T08:37:55.975Z,115
2017-12-08T08:38:56.230Z,115
2017-12-08T08:39:56.219Z,115
2017-12-08T08:40:56.247Z,115
2017-12-08T08:41:56.187Z,115
2017-12-08T08:42:56.171Z,115
2017-12-08T08:43:56.176Z,115
2017-12-08T08:44:56.169Z,115
2017-12-08T08:45:56.169Z,120
2017-12-08T08:46:56.118Z,120
2017-12-08T08:47:55.842Z,120
2017-12-08T08:48:55.615Z,120
2017-12-08T08:49:55.840Z,120
2017-12-08T08:50:56.127Z,120
2017-12-08T08:51:56.121Z,120
2017-12-08T08:52:56.107Z,120
2017-12-08T08:53:56.029Z,125
2017-12-08T08:54:56.066Z,125
2017-12-08T08:55:56.095Z,125
2017-12-08T08:56:56.038Z,125
2017-12-08T08:57:55.744Z,125
2017-12-08T08:58:56.317Z,125
2017-12-08T08:59:56.054Z,125
2017-12-08T09:00:56.040Z,125
2017-12-08T09:01:55.979Z,125
2017-12-08T09:02:56.042Z,125
2017-12-08T09:03:56.241Z,125
2017-12-08T09:04:55.973Z,125
2017-12-08T09:05:55.976Z,130
2017-12-08T09:06:55.458Z,130
2017-12-08T09:07:56.017Z,130
2017-12-08T09:08:56.062Z,130
2017-12-08T09:09:55.850Z,130
2017-12-08T09:10:55.847Z,130
2017-12-08T09:11:55.819Z,130
2017-12-08T09:12:55.812Z,130
2017-12-08T09:13:55.541Z,130
2017-12-08T09:14:55.780Z,130
2017-12-08T09:15:55.768Z,135
2017-12-08T09:16:55.791Z,130
2017-12-08T09:17:55.761Z,135
2017-12-08T09:18:55.813Z,140
2017-12-08T09:19:55.730Z,140
2017-12-08T09:20:55.731Z,135
2017-12-08T09:21:55.657Z,135
2017-12-08T09:22:55.695Z,135
2017-12-08T09:23:55.681Z,140
2017-12-08T09:24:55.391Z,140
2017-12-08T09:25:55.667Z,135
2017-12-08T09:26:55.658Z,135
2017-12-08T09:27:55.664Z,135
2017-12-08T09:28:55.613Z,140
2017-12-08T09:29:55.429Z,140
2017-12-08T09:30:55.590Z,140
2017-12-08T09:31:55.586Z,135
2017-12-08T09:32:55.549Z,140
2017-12-08T09:33:55.559Z,140
2017-12-08T09:34:55.562Z,140
2017-12-08T09:35:55.582Z,140
2017-12-08T09:36:55.501Z,140
2017-12-08T09:37:55.507Z,140
2017-12-08T09:38:55.507Z,135
2017-12-08T09:39:55.471Z,130
2017-12-08T09:40:55.500Z,135
2017-12-08T09:41:55.464Z,135
2017-12-08T09:42:55.246Z,135
2017-12-08T09:43:55.413Z,135
2017-12-08T09:44:55.475Z,135
2017-12-08T09:45:55.435Z,130
2017-12-08T09:46:55.405Z,130
2017-12-08T09:47:55.393Z,135
2017-12-08T09:48:55.372Z,135
2017-12-08T09:49:55.384Z,140
2017-12-08T09:50:55.394Z,140
2017-12-08T09:51:55.102Z,135
2017-12-08T09:52:55.377Z,140
2017-12-08T09:53:55.469Z,145
2017-12-08T09:54:55.475Z,145
2017-12-08T09:55:55.501Z,145
2017-12-08T09:56:55.407Z,140
2017-12-08T09:57:55.253Z,135
2017-12-08T09:58:55.085Z,135
2017-12-08T09:59:55.039Z,130
2017-12-08T10:00:55.273Z,135
2017-12-08T10:01:55.231Z,135
2017-12-08T10:02:55.240Z,130
2017-12-08T10:03:55.243Z,140
2017-12-08T10:04:55.207Z,140
2017-12-08T10:05:55.006Z,140
2017-12-08T10:06:54.724Z,150
2017-12-08T10:07:54.969Z,160
2017-12-08T10:08:54.923Z,165
2017-12-08T10:09:55.006Z,170
2017-12-08T10:10:55.150Z,170
2017-12-08T10:11:55.125Z,165
2017-12-08T10:12:55.110Z,165
2017-12-08T10:13:54.567Z,165
2017-12-08T10:14:55.101Z,195
2017-12-08T10:15:55.175Z,195
2017-12-08T10:16:55.347Z,195
2017-12-08T10:17:55.131Z,190
2017-12-08T10:18:55.074Z,165
2017-12-08T10:19:54.744Z,170
2017-12-08T10:20:55.011Z,180
2017-12-08T10:21:54.581Z,170
2017-12-08T10:22:54.878Z,170
2017-12-08T10:23:55.639Z,180
2017-12-08T10:24:55.079Z,175
2017-12-08T10:25:54.750Z,170
2017-12-08T10:26:54.748Z,170
2017-12-08T10:27:54.822Z,185
2017-12-08T10:28:54.979Z,200
2017-12-08T10:29:54.940Z,215
2017-12-08T10:30:54.164Z,225
2017-12-08T10:31:54.938Z,195
2017-12-08T10:32:54.898Z,165
2017-12-08T10:33:54.775Z,175
2017-12-08T10:34:54.987Z,135
2017-12-08T10:35:55.027Z,130
2017-12-08T10:36:56.196Z,175
2017-12-08T10:37:55.067Z,200
2017-12-08T10:38:54.963Z,170
2017-12-08T10:39:55.061Z,155
2017-12-08T10:40:54.887Z,155
2017-12-08T10:41:54.540Z,140
2017-12-08T10:42:54.413Z,115
2017-12-08T10:43:54.527Z,115
2017-12-08T10:44:54.749Z,90
2017-12-08T10:45:54.831Z,80
2017-12-08T10:46:54.825Z,110
2017-12-08T10:47:54.800Z,105
2017-12-08T10:48:54.703Z,200
2017-12-08T10:49:54.687Z,250
2017-12-08T10:50:54.408Z,230
2017-12-08T10:51:54.669Z,180
2017-12-08T10:52:54.449Z,170
2017-12-08T10:53:54.687Z,185
2017-12-08T10:54:54.678Z,195
2017-12-08T10:55:54.660Z,190
2017-12-08T10:56:54.491Z,195
2017-12-08T10:57:54.366Z,220
2017-12-08T10:58:54.595Z,220
2017-12-08T10:59:54.315Z,220
2017-12-08T11:00:54.573Z,205
2017-12-08T11:01:54.593Z,205
2017-12-08T11:02:54.547Z,205
2017-12-08T11:03:54.557Z,235
2017-12-08T11:04:54.593Z,245
2017-12-08T11:05:54.803Z,215
2017-12-08T11:06:54.497Z,215
2017-12-08T11:07:54.240Z,255
2017-12-08T11:08:54.499Z,255
2017-12-08T11:09:54.275Z,225
2017-12-08T11:10:54.577Z,190
2017-12-08T11:11:54.257Z,200
2017-12-08T11:12:54.206Z,185
2017-12-08T11:13:54.201Z,260
2017-12-08T11:14:54.420Z,250
2017-12-08T11:15:54.212Z,240
2017-12-08T11:16:54.432Z,210
2017-12-08T11:17:54.454Z,180
2017-12-08T11:18:54.475Z,165
2017-12-08T11:19:54.371Z,185
2017-12-08T11:20:54.373Z,175
2017-12-08T11:21:54.381Z,170
2017-12-08T11:22:54.344Z,185
2017-12-08T11:23:54.398Z,185
2017-12-08T11:24:54.387Z,165
2017-12-08T11:25:54.101Z,170
2017-12-08T11:26:54.134Z,185
2017-12-08T11:27:54.387Z,195
2017-12-08T11:28:54.287Z,220
2017-12-08T11:29:54.271Z,205
2017-12-08T11:30:54.274Z,165
2017-12-08T11:31:54.253Z,165
2017-12-08T11:32:54.306Z,185
2017-12-08T11:33:54.242Z,190
2017-12-08T11:34:54.234Z,180
2017-12-08T11:35:53.943Z,175
2017-12-08T11:36:54.208Z,180
2017-12-08T11:37:53.950Z,175
2017-12-08T11:38:53.938Z,175
2017-12-08T11:39:54.220Z,175
2017-12-08T11:40:53.956Z,160
2017-12-08T11:41:54.177Z,145
2017-12-08T11:42:54.154Z,160
2017-12-08T11:43:53.877Z,150
2017-12-08T11:44:54.145Z,150
2017-12-08T11:45:53.867Z,150
2017-12-08T11:46:54.124Z,165
2017-12-08T11:47:54.120Z,170
2017-12-08T11:48:53.839Z,155
2017-12-08T11:49:54.127Z,140
2017-12-08T11:50:54.066Z,135
2017-12-08T11:51:54.247Z,160
2017-12-08T11:52:54.036Z,170
2017-12-08T11:53:54.054Z,155
2017-12-08T11:54:53.804Z,160
2017-12-08T11:55:54.025Z,150
2017-12-08T11:56:54.042Z,145
2017-12-08T11:57:54.009Z,130
2017-12-08T11:58:53.721Z,135
2017-12-08T11:59:53.761Z,130
2017-12-08T12:00:53.964Z,125
2017-12-08T12:01:53.968Z,115
2017-12-08T12:02:53.411Z,115
2017-12-08T12:03:53.956Z,120
2017-12-08T12:04:53.942Z,100
2017-12-08T12:05:53.913Z,80
2017-12-08T12:06:53.430Z,80
2017-12-08T12:07:53.621Z,90
2017-12-08T12:08:53.867Z,105
2017-12-08T12:09:53.639Z,105
2017-12-08T12:10:53.881Z,85
2017-12-08T12:11:53.913Z,75
2017-12-08T12:12:53.565Z,80
2017-12-08T12:13:53.840Z,75
2017-12-08T12:14:53.813Z,60
2017-12-08T12:15:53.314Z,70
2017-12-08T12:16:53.537Z,70
2017-12-08T12:17:53.787Z,80
2017-12-08T12:18:53.759Z,130
2017-12-08T12:19:53.797Z,195
2017-12-08T12:20:53.756Z,225
2017-12-08T12:21:53.748Z,230
2017-12-08T12:22:53.728Z,215
2017-12-08T12:23:53.722Z,195
2017-12-08T12:24:53.484Z,170
2017-12-08T12:25:53.698Z,145
2017-12-08T12:26:53.676Z,135
2017-12-08T12:27:53.671Z,140
2017-12-08T12:28:53.665Z,150
2017-12-08T12:29:53.462Z,125
2017-12-08T12:30:53.627Z,95
2017-12-08T12:31:54.054Z,85
2017-12-08T12:32:53.360Z,90
2017-12-08T12:33:53.599Z,105
2017-12-08T12:34:53.583Z,130
2017-12-08T12:35:53.581Z,145
2017-12-08T12:36:53.098Z,215
2017-12-08T12:37:53.571Z,210
2017-12-08T12:38:53.578Z,180
2017-12-08T12:39:53.293Z,145
2017-12-08T12:40:53.571Z,145
2017-12-08T12:41:53.582Z,145
2017-12-08T12:42:53.600Z,135
2017-12-08T12:43:53.276Z,145
2017-12-08T12:44:53.243Z,205
2017-12-08T12:45:53.239Z,240
2017-12-08T12:46:53.247Z,215
2017-12-08T12:47:53.460Z,205
2017-12-08T12:48:52.959Z,180
2017-12-08T12:49:53.479Z,155
2017-12-08T12:50:53.491Z,155
2017-12-08T12:51:53.192Z,140
2017-12-08T12:52:53.432Z,120
2017-12-08T12:53:53.427Z,125
2017-12-08T12:54:53.384Z,150
2017-12-08T12:55:53.162Z,150
2017-12-08T12:56:53.409Z,155
2017-12-08T12:57:53.396Z,170
2017-12-08T12:58:52.864Z,165
2017-12-08T12:59:53.378Z,150
2017-12-08T13:00:52.841Z,140
2017-12-08T13:01:53.341Z,150
2017-12-08T13:02:53.337Z,135
2017-12-08T13:03:53.286Z,125
2017-12-08T13:04:53.301Z,120
2017-12-08T13:05:53.073Z,125
2017-12-08T13:06:53.014Z,135
2017-12-08T13:07:53.268Z,135
2017-12-08T13:08:52.998Z,135
2017-12-08T13:09:52.992Z,115
2017-12-08T13:10:53.090Z,110
2017-12-08T13:11:53.300Z,115
2017-12-08T13:12:52.973Z,120
2017-12-08T13:13:53.211Z,120
2017-12-08T13:14:53.292Z,120
2017-12-08T13:15:52.951Z,115
2017-12-08T13:16:52.669Z,110
2017-12-08T13:17:53.162Z,105
2017-12-08T13:18:53.179Z,115
2017-12-08T13:19:53.154Z,115
2017-12-08T13:20:52.642Z,115
2017-12-08T13:21:53.149Z,115
2017-12-08T13:22:52.843Z,110
2017-12-08T13:23:53.162Z,115
2017-12-08T13:24:52.836Z,115
2017-12-08T13:25:53.092Z,115
2017-12-08T13:26:53.104Z,110
2017-12-08T13:27:53.094Z,110
2017-12-08T13:28:52.783Z,110
2017-12-08T13:29:53.040Z,110
2017-12-08T13:30:53.020Z,110
2017-12-08T13:31:53.016Z,100
2017-12-08T13:32:53.199Z,90
2017-12-08T13:33:52.972Z,85
2017-12-08T13:34:52.733Z,85
2017-12-08T13:35:52.711Z,85
2017-12-08T13:36:52.967Z,80
2017-12-08T13:37:52.697Z,80
2017-12-08T13:38:52.956Z,80
2017-12-08T13:39:52.926Z,80
2017-12-08T13:40:52.948Z,80
2017-12-08T13:41:52.903Z,75
2017-12-08T13:42:52.873Z,75
2017-12-08T13:43:52.629Z,75
2017-12-08T13:44:52.860Z,75
2017-12-08T13:45:52.873Z,75
2017-12-08T13:46:52.867Z,75
2017-12-08T13:47:52.856Z,70
2017-12-08T13:48:52.567Z,70
2017-12-08T13:49:52.865Z,70
2017-12-08T13:50:52.795Z,70
2017-12-08T13:51:52.762Z,70
2017-12-08T13:52:52.808Z,65
2017-12-08T13:53:52.772Z,65
2017-12-08T13:54:52.513Z,70
2017-12-08T13:55:52.796Z,70
2017-12-08T13:56:52.719Z,70
2017-12-08T13:57:52.485Z,65
2017-12-08T13:58:52.488Z,65
2017-12-08T13:59:52.440Z,65
2017-12-08T14:00:52.688Z,65
2017-12-08T14:01:52.707Z,60
2017-12-08T14:02:52.759Z,60
2017-12-08T14:03:52.641Z,60
2017-12-08T14:04:52.635Z,60
2017-12-08T14:05:52.601Z,55
2017-12-08T14:06:52.617Z,55
2017-12-08T14:07:52.343Z,55
2017-12-08T14:08:52.579Z,55
2017-12-08T14:09:52.567Z,50
2017-12-08T14:10:52.041Z,50
2017-12-08T14:11:52.552Z,50
2017-12-08T14:12:52.274Z,50
2017-12-08T14:13:52.521Z,45
2017-12-08T14:14:52.497Z,45
2017-12-08T14:15:52.500Z,45
2017-12-08T14:16:52.236Z,45
2017-12-08T14:17:52.499Z,45
2017-12-08T14:18:52.456Z,40